Time;durP1;ratioP1;P1;durP2;ratioP2;P2;SDS_P1;SDS_P2;PMS_P1;PMS_P2;Temp;Humidity;BMP_temperature;BMP_pressure;BME280_temperature;BME280_humidity;BME280_pressure;Samples;Min_cycle;Max_cycle;Signal;HPM_P1;HPM_P2
2022/08/06 00:01:41;;;;;;;9.80;7.85;;;30.50;54.00;;;;;;5113896;28;20512;-75
2022/08/06 00:04:06;;;;;;;8.70;7.72;;;30.40;54.20;;;;;;5113787;28;20063;-75
2022/08/06 00:06:32;;;;;;;9.18;7.47;;;30.40;54.20;;;;;;5113896;28;20042;-75
2022/08/06 00:08:58;;;;;;;9.25;7.15;;;30.40;54.20;;;;;;5095071;28;20381;-75
2022/08/06 00:11:23;;;;;;;8.18;7.00;;;30.40;54.40;;;;;;5113710;28;20069;-75
2022/08/06 00:13:49;;;;;;;9.05;6.85;;;30.40;54.30;;;;;;5113728;28;20445;-75
2022/08/06 00:16:16;;;;;;;8.57;6.80;;;30.40;54.20;;;;;;5095462;28;20023;-75
2022/08/06 00:18:41;;;;;;;8.65;7.28;;;30.50;54.20;;;;;;5113641;28;20023;-75
2022/08/06 00:21:07;;;;;;;8.68;7.00;;;30.40;54.00;;;;;;5113626;28;20547;-76
2022/08/06 00:23:33;;;;;;;10.40;7.35;;;30.40;54.20;;;;;;5095196;28;20033;-75
2022/08/06 00:25:58;;;;;;;8.30;7.05;;;30.30;54.20;;;;;;5113593;28;20012;-75
2022/08/06 00:28:25;;;;;;;10.98;7.28;;;30.20;54.40;;;;;;5113394;28;20076;-75
2022/08/06 00:30:51;;;;;;;11.00;6.93;;;30.20;54.30;;;;;;5113339;28;20035;-75
2022/08/06 00:33:17;;;;;;;8.32;6.88;;;30.20;54.40;;;;;;5113344;28;20038;-75
2022/08/06 00:35:44;;;;;;;10.90;7.15;;;30.20;54.30;;;;;;5113279;28;20027;-75
2022/08/06 00:38:10;;;;;;;8.48;7.00;;;30.10;54.30;;;;;;5112881;28;20072;-76
2022/08/06 00:40:36;;;;;;;11.13;7.55;;;30.20;54.40;;;;;;5113178;28;20043;-76
2022/08/06 00:43:04;;;;;;;9.90;7.30;;;30.00;54.30;;;;;;5113081;28;20028;-75
2022/08/06 00:45:31;;;;;;;11.07;7.22;;;29.90;54.60;;;;;;5113006;28;20027;-75
2022/08/06 00:47:57;;;;;;;10.38;7.95;;;29.80;54.80;;;;;;5112888;28;20048;-75
2022/08/06 00:50:22;;;;;;;10.45;7.57;;;29.70;54.90;;;;;;5113111;28;20027;-75
2022/08/06 00:52:48;;;;;;;9.18;7.60;;;29.60;55.50;;;;;;5113109;28;20027;-75
2022/08/06 00:55:14;;;;;;;9.82;7.70;;;29.60;55.40;;;;;;5112936;28;20030;-76
2022/08/06 00:57:40;;;;;;;8.48;7.50;;;29.50;55.50;;;;;;5112969;28;20103;-76
2022/08/06 01:00:07;;;;;;;9.07;8.00;;;29.40;55.70;;;;;;5113092;28;20046;-75
2022/08/06 01:02:33;;;;;;;9.23;7.78;;;29.40;55.60;;;;;;5112838;28;20016;-75
2022/08/06 01:04:59;;;;;;;11.73;8.48;;;29.40;55.70;;;;;;5113242;28;20590;-75
2022/08/06 01:07:25;;;;;;;10.00;7.57;;;29.50;55.90;;;;;;5112657;28;20442;-74
2022/08/06 01:09:50;;;;;;;9.50;8.50;;;29.40;55.60;;;;;;5111891;28;20490;-75
2022/08/06 01:12:16;;;;;;;9.43;8.35;;;29.50;55.60;;;;;;5113190;28;20375;-75
2022/08/06 01:14:43;;;;;;;10.10;8.15;;;29.50;55.60;;;;;;5113023;28;20031;-76
2022/08/06 01:17:17;;;;;;;10.70;8.30;;;29.60;55.50;;;;;;5112895;28;20023;-75
2022/08/06 01:20:22;;;;;;;10.20;8.60;;;29.50;55.30;;;;;;5112862;28;20020;-75
2022/08/06 01:23:42;;;;;;;9.75;8.70;;;29.50;55.50;;;;;;5094766;28;20027;-75
2022/08/06 01:26:35;;;;;;;11.02;9.10;;;29.50;55.40;;;;;;5010612;28;20180;-76
2022/08/06 01:29:16;;;;;;;10.20;8.60;;;29.40;55.80;;;;;;5010392;28;20061;-76
2022/08/06 01:31:48;;;;;;;10.38;8.88;;;29.30;55.80;;;;;;4994201;28;20437;-75
2022/08/06 01:34:32;;;;;;;10.20;8.85;;;29.30;55.90;;;;;;4993888;28;20388;-75
2022/08/06 01:37:26;;;;;;;10.88;9.27;;;29.30;55.90;;;;;;5010498;28;20026;-76
2022/08/06 01:39:58;;;;;;;9.88;8.88;;;29.30;56.00;;;;;;5010573;28;20488;-75
2022/08/06 01:42:26;;;;;;;11.02;8.90;;;29.20;56.10;;;;;;4993799;28;20563;-75
2022/08/06 01:44:54;;;;;;;13.88;8.80;;;29.20;56.10;;;;;;4993842;28;20030;-75
2022/08/06 01:47:21;;;;;;;10.70;9.18;;;29.20;56.10;;;;;;5010422;28;20042;-75
2022/08/06 01:49:52;;;;;;;10.18;9.05;;;29.10;56.30;;;;;;5009987;28;20084;-75
2022/08/06 01:52:20;;;;;;;10.18;8.95;;;29.20;56.20;;;;;;5010307;28;20531;-75
2022/08/06 01:54:49;;;;;;;10.02;8.60;;;29.20;56.20;;;;;;5010450;28;20038;-75
2022/08/06 01:57:19;;;;;;;12.27;8.35;;;29.20;56.10;;;;;;5010183;28;20022;-75
2022/08/06 01:59:48;;;;;;;9.43;8.50;;;29.10;56.30;;;;;;5049320;28;20038;-75
2022/08/06 02:02:18;;;;;;;10.33;9.00;;;29.10;56.10;;;;;;5116253;28;20020;-75
2022/08/06 02:04:47;;;;;;;9.48;8.52;;;29.00;56.30;;;;;;5115948;28;20019;-75
2022/08/06 02:07:15;;;;;;;12.27;8.05;;;29.00;56.20;;;;;;5116189;28;20020;-75
2022/08/06 02:09:44;;;;;;;11.02;7.75;;;28.90;55.90;;;;;;5116088;28;20027;-75
2022/08/06 02:12:17;;;;;;;9.23;7.60;;;28.70;56.40;;;;;;5116060;28;20127;-75
2022/08/06 02:14:52;;;;;;;8.32;7.40;;;28.80;56.40;;;;;;5116250;28;20028;-75
2022/08/06 02:17:22;;;;;;;9.90;8.20;;;29.00;56.00;;;;;;5115715;28;20495;-75
2022/08/06 02:19:50;;;;;;;11.98;8.63;;;29.10;55.60;;;;;;5115983;28;20374;-75
2022/08/06 02:22:17;;;;;;;10.25;8.13;;;29.10;55.60;;;;;;5116076;28;20102;-75
2022/08/06 02:24:45;;;;;;;12.35;7.55;;;29.00;55.70;;;;;;5115707;28;20099;-75
2022/08/06 02:27:14;;;;;;;9.68;7.50;;;28.90;55.80;;;;;;5115877;28;20020;-75
2022/08/06 02:29:42;;;;;;;9.23;7.72;;;29.00;55.60;;;;;;5115612;28;20051;-76
2022/08/06 02:32:09;;;;;;;11.73;7.72;;;29.00;55.40;;;;;;5115574;28;20101;-75
2022/08/06 02:34:35;;;;;;;9.15;8.15;;;29.10;55.20;;;;;;5115698;28;20099;-75
2022/08/06 02:37:17;;;;;;;9.38;8.30;;;29.00;55.00;;;;;;5115679;28;20102;-75
2022/08/06 02:39:52;;;;;;;11.15;7.75;;;29.00;55.60;;;;;;5115463;28;20016;-75
2022/08/06 02:42:27;;;;;;;11.18;8.40;;;28.90;55.50;;;;;;5115493;28;20107;-75
2022/08/06 02:45:08;;;;;;;9.45;8.38;;;28.80;55.30;;;;;;5115435;28;20467;-75
2022/08/06 02:47:43;;;;;;;10.50;8.82;;;28.60;55.90;;;;;;5115312;28;20027;-75
2022/08/06 02:50:13;;;;;;;9.48;8.23;;;28.40;56.50;;;;;;5115378;28;20036;-75
2022/08/06 02:52:54;;;;;;;10.02;7.80;;;28.40;56.40;;;;;;5115343;28;20359;-76
2022/08/06 02:55:21;;;;;;;;;;;28.30;56.30;;;;;;5115671;28;20382;-75
2022/08/06 02:57:53;;;;;;;9.20;8.23;;;28.30;56.50;;;;;;5115504;28;19911;-75
2022/08/06 03:00:20;;;;;;;9.85;8.85;;;28.20;56.70;;;;;;5115041;28;20149;-75
2022/08/06 03:02:48;;;;;;;11.48;8.85;;;28.00;56.70;;;;;;5115121;28;20024;-75
2022/08/06 03:05:18;;;;;;;9.93;8.52;;;27.90;56.90;;;;;;5115111;28;20012;-75
2022/08/06 03:07:46;;;;;;;12.55;8.65;;;27.80;57.10;;;;;;5114928;28;20032;-75
2022/08/06 03:10:13;;;;;;;10.55;8.23;;;27.90;56.90;;;;;;5114558;28;20042;-75
2022/08/06 03:12:40;;;;;;;11.00;8.40;;;27.90;56.80;;;;;;5114842;28;20023;-76
2022/08/06 03:15:08;;;;;;;9.75;7.78;;;27.90;56.70;;;;;;5114676;28;20378;-74
2022/08/06 03:17:36;;;;;;;9.27;8.15;;;28.00;56.70;;;;;;5115128;28;20386;-75
2022/08/06 03:20:03;;;;;;;10.80;7.90;;;28.00;56.50;;;;;;5114674;28;20382;-75
2022/08/06 03:22:31;;;;;;;9.80;8.25;;;27.80;57.10;;;;;;5114483;28;20172;-75
2022/08/06 03:24:58;;;;;;;10.05;8.38;;;28.00;56.80;;;;;;5114664;28;20035;-76
2022/08/06 03:27:25;;;;;;;8.80;7.90;;;28.10;56.50;;;;;;5114673;28;20024;-75
2022/08/06 03:29:53;;;;;;;9.40;8.48;;;28.10;56.50;;;;;;5114350;28;20093;-75
2022/08/06 03:32:20;;;;;;;9.43;8.43;;;27.80;56.90;;;;;;5096246;28;20489;-75
2022/08/06 03:34:46;;;;;;;10.40;8.57;;;27.80;57.10;;;;;;5114474;28;20020;-76
2022/08/06 03:37:13;;;;;;;11.38;9.10;;;27.80;57.10;;;;;;5114343;28;20528;-75
2022/08/06 03:39:41;;;;;;;11.45;8.25;;;27.90;57.00;;;;;;5114572;28;20450;-75
2022/08/06 03:42:07;;;;;;;8.63;7.75;;;28.00;57.00;;;;;;5114555;28;20073;-75
2022/08/06 03:44:33;;;;;;;9.23;8.32;;;27.90;57.20;;;;;;5114169;28;20024;-76
2022/08/06 03:47:07;;;;;;;12.20;8.25;;;28.00;57.10;;;;;;5114369;28;20024;-75
2022/08/06 03:49:40;;;;;;;10.85;7.85;;;28.10;56.90;;;;;;5114126;28;20413;-75
2022/08/06 03:52:07;;;;;;;11.07;7.60;;;28.20;57.10;;;;;;5113932;28;20080;-75
2022/08/06 03:54:36;;;;;;;10.23;7.47;;;28.00;57.20;;;;;;5114144;28;20039;-75
2022/08/06 03:57:08;;;;;;;10.07;7.90;;;28.00;57.50;;;;;;5114207;28;20466;-75
2022/08/06 03:59:37;;;;;;;8.55;7.65;;;28.20;57.10;;;;;;5114098;28;20058;-75
2022/08/06 04:02:04;;;;;;;11.13;8.52;;;28.40;56.90;;;;;;5114054;28;20027;-76
2022/08/06 04:04:32;;;;;;;10.80;8.18;;;28.50;56.70;;;;;;5095534;28;20495;-75
2022/08/06 04:06:59;;;;;;;11.18;7.40;;;28.50;56.60;;;;;;5114250;28;20031;-75
2022/08/06 04:09:27;;;;;;;9.52;7.03;;;28.60;56.90;;;;;;5113788;28;20030;-75
2022/08/06 04:11:54;;;;;;;11.65;7.88;;;28.50;56.90;;;;;;5113676;28;20023;-75
2022/08/06 04:14:21;;;;;;;8.95;6.93;;;28.70;57.20;;;;;;5095782;28;20031;-75
2022/08/06 04:16:48;;;;;;;8.73;6.95;;;28.70;56.80;;;;;;5113818;28;20022;-75
2022/08/06 04:19:18;;;;;;;8.00;7.10;;;28.40;57.20;;;;;;5113647;28;20385;-75
2022/08/06 04:21:44;;;;;;;9.02;7.32;;;28.50;56.80;;;;;;5113027;28;20027;-75
2022/08/06 04:24:10;;;;;;;9.32;7.60;;;28.40;57.00;;;;;;5095190;28;20035;-75
2022/08/06 04:26:38;;;;;;;11.43;7.50;;;28.70;57.10;;;;;;5113472;28;20026;-76
2022/08/06 04:29:07;;;;;;;12.65;7.97;;;28.90;56.70;;;;;;5094845;28;20053;-75
2022/08/06 04:31:33;;;;;;;8.35;7.22;;;29.10;56.60;;;;;;5113366;28;20032;-76
2022/08/06 04:34:00;;;;;;;8.93;7.43;;;29.20;56.60;;;;;;5113188;28;20020;-75
2022/08/06 04:36:28;;;;;;;9.60;6.43;;;29.30;56.20;;;;;;5113591;28;20047;-75
2022/08/06 04:38:54;;;;;;;12.65;6.85;;;29.40;55.40;;;;;;5113414;28;20022;-75
2022/08/06 04:41:21;;;;;;;8.68;6.90;;;29.10;55.00;;;;;;5113044;28;20475;-76
2022/08/06 04:43:47;;;;;;;8.50;5.72;;;29.30;56.00;;;;;;5113175;28;20019;-75
2022/08/06 04:46:13;;;;;;;8.32;6.40;;;29.40;54.80;;;;;;5113167;28;20023;-75
2022/08/06 04:48:39;;;;;;;7.32;6.47;;;29.40;55.20;;;;;;5113101;28;20051;-75
2022/08/06 04:51:05;;;;;;;8.73;6.28;;;29.60;55.00;;;;;;5112934;28;20031;-75
2022/08/06 04:53:40;;;;;;;9.05;5.68;;;29.70;55.00;;;;;;5112924;28;20032;-74
2022/08/06 04:56:07;;;;;;;8.88;6.07;;;29.80;54.20;;;;;;5112697;28;20081;-75
2022/08/06 04:58:33;;;;;;;11.70;6.72;;;29.90;54.10;;;;;;5113014;28;20016;-75
2022/08/06 05:01:00;;;;;;;8.32;7.07;;;30.10;54.70;;;;;;5112837;28;20035;-75
2022/08/06 05:03:26;;;;;;;8.60;6.43;;;30.30;54.50;;;;;;5112895;28;20024;-75
2022/08/06 05:06:33;;;;;;;11.50;6.55;;;30.30;54.60;;;;;;5112993;28;20027;-75
2022/08/06 05:09:03;;;;;;;10.07;6.47;;;30.20;54.30;;;;;;5010297;28;20095;-74
2022/08/06 05:11:38;;;;;;;10.10;6.45;;;30.20;54.40;;;;;;5009036;28;20366;-75
2022/08/06 05:14:14;;;;;;;9.25;6.22;;;30.30;54.20;;;;;;5010714;28;20064;-76
2022/08/06 05:16:43;;;;;;;7.82;6.60;;;30.30;54.40;;;;;;5010738;28;20385;-75
2022/08/06 05:19:16;;;;;;;8.57;5.60;;;30.50;53.90;;;;;;5010615;28;20440;-75
2022/08/06 05:21:45;;;;;;;8.35;5.85;;;30.70;53.50;;;;;;5010596;28;20030;-75
2022/08/06 05:24:11;;;;;;;6.70;5.10;;;30.60;53.50;;;;;;5010707;28;20033;-75
2022/08/06 05:26:37;;;;;;;5.93;5.10;;;30.70;53.40;;;;;;5010319;28;20040;-75
2022/08/06 05:29:03;;;;;;;8.73;5.78;;;30.80;53.50;;;;;;5010653;28;20042;-75
2022/08/06 05:31:36;;;;;;;7.30;4.90;;;30.80;53.30;;;;;;5010528;28;20500;-75
2022/08/06 05:34:03;;;;;;;6.88;4.82;;;30.90;52.80;;;;;;5013087;28;20038;-75
2022/08/06 05:36:29;;;;;;;6.57;4.90;;;30.90;52.10;;;;;;5014222;28;20593;-76
2022/08/06 05:38:55;;;;;;;6.35;5.18;;;31.20;52.20;;;;;;5031228;28;20525;-76
2022/08/06 05:41:21;;;;;;;7.82;5.40;;;31.30;53.20;;;;;;5116605;28;20056;-75
2022/08/06 05:43:46;;;;;;;6.95;5.53;;;31.50;53.30;;;;;;5116668;28;20370;-76
2022/08/06 05:46:15;;;;;;;6.82;5.47;;;31.60;53.60;;;;;;5116773;28;20059;-76
2022/08/06 05:49:07;;;;;;;9.50;5.90;;;31.80;53.40;;;;;;5116480;28;20036;-76
2022/08/06 05:51:46;;;;;;;8.88;5.50;;;31.90;52.40;;;;;;5116345;28;20417;-76
2022/08/06 05:54:29;;;;;;;5.97;5.05;;;31.90;52.40;;;;;;5098384;28;20020;-79
2022/08/06 05:57:04;;;;;;;7.40;5.00;;;31.90;52.30;;;;;;5117147;28;20027;-81
2022/08/06 05:59:33;;;;;;;7.30;4.82;;;31.80;51.60;;;;;;5111659;28;20036;-79
2022/08/06 06:01:59;;;;;;;6.15;4.68;;;31.90;51.20;;;;;;5116908;28;20370;-76
2022/08/06 06:04:25;;;;;;;6.85;4.80;;;31.60;51.50;;;;;;5117193;28;20015;-76
2022/08/06 06:06:51;;;;;;;5.95;4.80;;;31.60;51.70;;;;;;5116212;28;20490;-77
2022/08/06 06:09:18;;;;;;;7.50;4.80;;;31.70;52.00;;;;;;5116702;28;20039;-76
2022/08/06 06:11:45;;;;;;;6.93;5.10;;;31.60;52.10;;;;;;5116525;28;20073;-76
2022/08/06 06:14:45;;;;;;;6.47;4.85;;;31.60;51.50;;;;;;5116608;28;20381;-76
2022/08/06 06:17:41;;;;;;;7.25;5.13;;;31.60;51.80;;;;;;5098192;28;20059;-81
2022/08/06 06:20:17;;;;;;;11.55;5.30;;;31.70;51.60;;;;;;5116599;28;20031;-85
2022/08/06 06:23:12;;;;;;;9.75;5.20;;;31.70;51.50;;;;;;5098504;28;20020;-83
2022/08/06 06:25:48;;;;;;;6.95;5.38;;;31.60;51.10;;;;;;5116790;28;20355;-81
2022/08/06 06:28:28;;;;;;;10.38;5.40;;;31.60;51.30;;;;;;5116698;28;20497;-75
2022/08/06 06:31:07;;;;;;;7.75;4.70;;;31.60;51.30;;;;;;5115563;28;20031;-77
2022/08/06 06:34:09;;;;;;;8.10;5.30;;;31.90;51.40;;;;;;5116198;28;20488;-75
2022/08/06 06:36:46;;;;;;;8.82;4.97;;;32.10;51.20;;;;;;5109682;28;20032;-76
2022/08/06 06:39:28;;;;;;;7.82;5.00;;;32.20;51.40;;;;;;5114444;28;20032;-76
2022/08/06 06:42:20;;;;;;;14.75;5.43;;;32.40;51.60;;;;;;5113738;28;20027;-77
2022/08/06 06:45:08;;;;;;;7.20;5.07;;;32.60;51.00;;;;;;5087704;28;20042;-84
2022/08/06 06:47:52;;;;;;;8.82;5.00;;;32.60;50.50;;;;;;5115034;28;20016;-80
2022/08/06 06:50:22;;;;;;;9.25;5.22;;;32.60;50.40;;;;;;5096965;28;20047;-78
2022/08/06 06:52:51;;;;;;;7.40;5.10;;;32.50;51.00;;;;;;5115397;28;20023;-80
2022/08/06 06:55:29;;;;;;;6.82;4.80;;;32.50;50.80;;;;;;5107256;28;20621;-78
2022/08/06 06:58:06;;;;;;;7.90;4.80;;;32.50;50.10;;;;;;5114573;28;20026;-78
2022/08/06 07:00:34;;;;;;;7.57;5.30;;;32.70;50.30;;;;;;5113015;28;20032;-79
2022/08/06 07:03:01;;;;;;;6.25;5.00;;;33.00;50.30;;;;;;5113642;28;20410;-79
2022/08/06 07:05:31;;;;;;;8.30;5.07;;;33.10;50.20;;;;;;5114359;28;20035;-79
2022/08/06 07:07:59;;;;;;;6.18;4.60;;;33.30;50.30;;;;;;5114671;28;20019;-79
2022/08/06 07:10:26;;;;;;;7.30;4.90;;;32.90;49.40;;;;;;5096597;28;20031;-80
2022/08/06 07:12:55;;;;;;;7.95;5.15;;;32.90;50.00;;;;;;5097300;28;20030;-78
2022/08/06 07:15:22;;;;;;;7.45;4.75;;;32.90;49.60;;;;;;5115716;28;20024;-82
2022/08/06 07:17:50;;;;;;;8.10;4.80;;;32.90;50.40;;;;;;5097233;28;20030;-79
2022/08/06 07:20:36;;;;;;;6.18;4.90;;;32.90;50.20;;;;;;5097639;28;20031;-77
2022/08/06 07:23:06;;;;;;;6.15;4.70;;;32.90;49.80;;;;;;5115039;28;20128;-79
2022/08/06 07:25:37;;;;;;;5.10;4.60;;;33.00;50.20;;;;;;5114251;28;20032;-80
2022/08/06 07:28:04;;;;;;;7.05;4.72;;;33.20;50.50;;;;;;5095834;28;20024;-76
2022/08/06 07:30:32;;;;;;;5.45;4.90;;;33.30;49.80;;;;;;5113142;28;20741;-76
2022/08/06 07:32:58;;;;;;;7.47;4.80;;;33.30;49.60;;;;;;5113371;28;20027;-77
2022/08/06 07:35:24;;;;;;;9.88;4.57;;;33.40;49.70;;;;;;5113443;28;20500;-76
2022/08/06 07:38:01;;;;;;;7.40;4.72;;;33.70;49.40;;;;;;5113121;28;20035;-77
2022/08/06 07:40:31;;;;;;;6.22;4.78;;;33.90;49.40;;;;;;5113653;28;20069;-77
2022/08/06 07:43:08;;;;;;;6.90;4.80;;;34.00;49.90;;;;;;5114041;28;20020;-85
2022/08/06 07:45:34;;;;;;;7.45;4.93;;;34.10;49.70;;;;;;5114634;28;20026;-77
2022/08/06 07:48:12;;;;;;;6.68;4.70;;;34.00;49.10;;;;;;5114508;28;20040;-78
2022/08/06 07:50:44;;;;;;;5.35;4.35;;;34.10;48.80;;;;;;5115230;28;20059;-78
2022/08/06 07:53:17;;;;;;;5.75;4.70;;;34.30;49.30;;;;;;5113918;28;20050;-83
2022/08/06 07:55:43;;;;;;;7.90;4.78;;;34.40;48.60;;;;;;5090981;28;20024;-80
2022/08/06 07:58:10;;;;;;;7.47;5.00;;;34.60;49.10;;;;;;5096389;28;20039;-79
2022/08/06 08:00:37;;;;;;;8.68;5.03;;;34.80;48.70;;;;;;5113474;28;20024;-78
2022/08/06 08:08:34;;;;;;;16.70;5.20;;;34.60;48.30;;;;;;5113348;28;20038;-78
2022/08/06 08:11:01;;;;;;;7.55;5.07;;;34.40;48.70;;;;;;5113158;28;20027;-79
2022/08/06 08:13:28;;;;;;;6.50;4.53;;;34.10;48.90;;;;;;5113590;28;20039;-79
2022/08/06 08:15:55;;;;;;;6.47;4.85;;;33.80;48.60;;;;;;5113490;28;20015;-78
2022/08/06 08:18:27;;;;;;;7.68;4.50;;;34.10;49.70;;;;;;5113864;28;20028;-77
2022/08/06 08:20:53;;;;;;;5.10;4.50;;;34.60;49.40;;;;;;5114395;28;20073;-77
2022/08/06 08:23:20;;;;;;;7.53;4.57;;;35.10;48.80;;;;;;5113798;28;20085;-78
2022/08/06 08:25:45;;;;;;;10.02;4.65;;;35.50;49.10;;;;;;5114004;28;20031;-78
2022/08/06 08:28:12;;;;;;;6.32;4.65;;;35.70;48.40;;;;;;5112597;28;20024;-78
2022/08/06 08:30:41;;;;;;;7.25;4.95;;;35.80;48.40;;;;;;5095270;28;20521;-79
2022/08/06 08:33:07;;;;;;;8.80;4.50;;;35.90;48.20;;;;;;5113322;28;20040;-78
2022/08/06 08:35:33;;;;;;;8.18;4.68;;;36.00;48.30;;;;;;5112571;28;20103;-77
2022/08/06 08:37:59;;;;;;;8.00;5.30;;;36.10;48.60;;;;;;4757304;28;9999952;-78
2022/08/06 08:40:26;;;;;;;5.57;4.50;;;36.20;48.90;;;;;;5110501;28;20055;-79
2022/08/06 08:42:55;;;;;;;5.25;4.65;;;36.40;48.70;;;;;;5110067;28;20038;-76
2022/08/06 08:45:22;;;;;;;6.15;4.78;;;36.40;48.00;;;;;;5110819;28;20019;-86
2022/08/06 08:47:53;;;;;;;5.13;4.63;;;36.30;47.90;;;;;;5110447;28;20023;-77
2022/08/06 08:50:21;;;;;;;5.70;4.75;;;36.50;48.40;;;;;;5091493;28;20035;-77
2022/08/06 08:53:09;;;;;;;6.03;4.72;;;36.70;48.10;;;;;;5110752;28;20545;-78
2022/08/06 08:55:38;;;;;;;5.72;4.72;;;36.80;47.30;;;;;;5110542;28;20468;-75
2022/08/06 08:58:04;;;;;;;5.15;4.30;;;36.80;47.00;;;;;;5110246;28;20062;-77
2022/08/06 09:00:29;;;;;;;5.57;4.72;;;36.70;47.70;;;;;;5110312;28;20028;-77
2022/08/06 09:02:56;;;;;;;6.85;4.72;;;36.80;47.20;;;;;;5110269;28;20098;-76
2022/08/06 09:05:23;;;;;;;6.03;4.70;;;37.10;47.50;;;;;;5111421;28;20371;-77
2022/08/06 09:07:50;;;;;;;6.32;4.55;;;37.00;46.50;;;;;;5112734;28;20031;-79
2022/08/06 09:10:15;;;;;;;9.55;4.45;;;37.00;47.20;;;;;;5114428;28;20442;-79
2022/08/06 09:12:42;;;;;;;9.75;4.95;;;37.30;47.10;;;;;;5114357;28;20522;-78
2022/08/06 09:15:08;;;;;;;6.82;4.40;;;37.50;45.90;;;;;;5114040;28;20046;-78
2022/08/06 09:17:34;;;;;;;7.18;4.20;;;37.60;45.70;;;;;;5114009;28;20374;-77
2022/08/06 09:20:00;;;;;;;8.23;4.57;;;37.80;46.60;;;;;;5114088;28;20174;-75
2022/08/06 09:22:26;;;;;;;7.03;4.50;;;37.90;45.70;;;;;;5114130;28;20662;-77
2022/08/06 09:24:52;;;;;;;6.05;4.38;;;38.10;45.10;;;;;;5113158;28;20059;-76
2022/08/06 09:27:18;;;;;;;8.50;4.43;;;38.30;46.40;;;;;;5113932;28;20015;-78
2022/08/06 09:29:56;;;;;;;5.88;3.97;;;38.50;46.00;;;;;;5099467;27;20138;-76
2022/08/06 09:32:38;;;;;;;5.85;4.50;;;38.40;45.70;;;;;;5113547;28;20059;-83
2022/08/06 09:35:25;;;;;;;6.60;4.10;;;38.50;46.00;;;;;;5096330;28;20073;-77
2022/08/06 09:38:04;;;;;;;5.85;4.32;;;38.70;46.00;;;;;;5123687;27;20083;-79
2022/08/06 09:40:30;;;;;;;5.80;4.53;;;38.40;45.60;;;;;;5135089;27;20026;-76
2022/08/06 09:42:56;;;;;;;4.90;4.00;;;38.20;45.80;;;;;;5135361;27;20023;-77
2022/08/06 09:45:23;;;;;;;7.65;4.60;;;38.40;46.10;;;;;;5137295;27;20024;-81
2022/08/06 09:48:01;;;;;;;6.25;4.03;;;38.60;45.80;;;;;;5118638;27;20023;-77
2022/08/06 09:50:42;;;;;;;6.57;4.45;;;38.60;45.90;;;;;;5136917;27;20466;-77
2022/08/06 09:53:12;;;;;;;9.75;4.78;;;38.60;45.40;;;;;;5137839;27;20426;-84
2022/08/06 09:55:38;;;;;;;7.43;4.60;;;38.50;45.10;;;;;;5119365;27;20053;-78
2022/08/06 09:58:04;;;;;;;7.95;4.60;;;38.30;46.10;;;;;;5137332;27;20327;-85
2022/08/06 10:00:33;;;;;;;5.68;4.60;;;38.40;46.10;;;;;;5119701;27;20051;-82
2022/08/06 10:03:04;;;;;;;5.50;4.43;;;38.40;45.80;;;;;;5137685;27;20341;-78
2022/08/06 10:05:32;;;;;;;5.30;4.43;;;38.50;45.80;;;;;;5137108;27;20423;-76
2022/08/06 10:08:17;;;;;;;5.65;4.18;;;38.40;46.30;;;;;;5137189;27;20030;-78
2022/08/06 10:10:44;;;;;;;7.22;4.57;;;38.50;46.30;;;;;;5137025;27;20045;-76
2022/08/06 10:13:30;;;;;;;5.45;4.70;;;38.50;46.20;;;;;;5119089;27;20386;-78
2022/08/06 10:15:58;;;;;;;6.00;4.72;;;38.50;46.30;;;;;;5136121;27;20035;-78
2022/08/06 10:18:37;;;;;;;11.63;5.30;;;38.60;45.80;;;;;;5115493;27;20023;-78
2022/08/06 10:21:05;;;;;;;6.97;4.65;;;38.80;46.20;;;;;;5136566;27;20106;-78
2022/08/06 10:23:34;;;;;;;16.75;4.85;;;39.10;45.70;;;;;;5136593;27;20030;-78
2022/08/06 10:26:02;;;;;;;7.80;4.70;;;39.20;46.10;;;;;;5137723;27;20050;-79
2022/08/06 10:28:31;;;;;;;6.90;4.68;;;39.60;45.90;;;;;;5137211;27;20011;-78
2022/08/06 10:30:58;;;;;;;6.20;4.72;;;39.70;44.80;;;;;;5136885;27;20046;-78
2022/08/06 10:33:28;;;;;;;6.80;4.47;;;39.80;45.20;;;;;;5137061;27;20022;-77
2022/08/06 10:35:57;;;;;;;;;;;39.90;44.70;;;;;;5137509;27;20015;-78
2022/08/06 10:38:26;;;;;;;7.60;5.00;;;39.90;44.90;;;;;;5136785;27;20289;-82
2022/08/06 10:40:53;;;;;;;6.68;4.80;;;39.40;45.10;;;;;;5136988;27;20488;-82
2022/08/06 10:43:20;;;;;;;7.65;5.20;;;39.50;45.60;;;;;;5118477;27;20172;-78
2022/08/06 10:45:46;;;;;;;6.40;4.50;;;39.40;45.50;;;;;;5136827;27;20034;-78
2022/08/06 10:48:12;;;;;;;8.35;4.72;;;39.30;46.00;;;;;;5136724;27;20092;-79
2022/08/06 10:50:39;;;;;;;7.80;5.00;;;39.50;45.40;;;;;;5136634;27;20027;-78
2022/08/06 10:53:06;;;;;;;5.72;4.50;;;39.60;45.10;;;;;;5136654;27;20047;-77
2022/08/06 10:55:32;;;;;;;6.13;5.03;;;39.50;45.40;;;;;;5118179;27;20473;-79
2022/08/06 10:57:59;;;;;;;8.75;4.80;;;39.70;45.50;;;;;;5118343;27;20035;-77
2022/08/06 11:00:27;;;;;;;5.97;4.90;;;39.80;44.80;;;;;;5136691;27;20031;-80
2022/08/06 11:03:15;;;;;;;6.63;5.05;;;40.00;45.70;;;;;;5136891;27;20449;-77
2022/08/06 11:05:42;;;;;;;7.50;4.80;;;40.00;45.20;;;;;;5136290;27;20376;-77
2022/08/06 11:08:28;;;;;;;8.15;4.93;;;40.00;45.60;;;;;;5136215;27;20026;-78
2022/08/06 11:11:15;;;;;;;7.88;5.22;;;40.10;45.20;;;;;;5136114;27;20051;-75
2022/08/06 11:14:00;;;;;;;8.25;4.80;;;40.00;43.90;;;;;;5136141;27;20011;-77
2022/08/06 11:16:27;;;;;;;5.00;4.50;;;39.80;45.40;;;;;;5136439;27;20034;-78
2022/08/06 11:19:04;;;;;;;8.15;5.05;;;40.00;46.00;;;;;;5136302;27;20090;-77
2022/08/06 11:21:46;;;;;;;7.60;4.38;;;39.70;45.00;;;;;;5136264;27;20109;-77
2022/08/06 11:24:13;;;;;;;7.85;5.00;;;39.60;45.40;;;;;;5135729;27;20028;-77
2022/08/06 11:26:42;;;;;;;6.82;4.68;;;39.80;45.00;;;;;;5135889;27;20106;-77
2022/08/06 11:29:12;;;;;;;6.28;5.10;;;40.20;44.80;;;;;;5135798;27;20027;-78
2022/08/06 11:31:47;;;;;;;7.18;4.75;;;40.40;44.40;;;;;;5135964;27;20034;-78
2022/08/06 11:34:15;;;;;;;6.25;4.57;;;40.60;44.00;;;;;;5117302;27;20643;-78
2022/08/06 11:36:50;;;;;;;8.40;5.22;;;40.70;45.60;;;;;;5135925;27;20030;-79
2022/08/06 11:39:19;;;;;;;6.22;5.18;;;40.60;44.20;;;;;;5135377;27;20029;-78
2022/08/06 11:42:01;;;;;;;9.32;5.30;;;40.30;45.00;;;;;;4760146;28;10000055;-78
2022/08/06 11:44:35;;;;;;;5.88;5.28;;;39.80;44.10;;;;;;5113687;28;20028;-77
2022/08/06 11:47:16;;;;;;;8.00;5.20;;;39.80;44.80;;;;;;5115028;28;20020;-77
2022/08/06 11:49:47;;;;;;;9.20;5.75;;;40.00;44.80;;;;;;5114522;28;20123;-77
2022/08/06 11:52:31;;;;;;;11.80;5.85;;;40.20;44.00;;;;;;5096410;28;20118;-75
2022/08/06 11:55:06;;;;;;;10.25;6.78;;;40.20;44.60;;;;;;5114558;28;20016;-78
2022/08/06 11:57:33;;;;;;;12.30;6.18;;;39.80;45.80;;;;;;5114998;28;20474;-77
2022/08/06 11:59:58;;;;;;;10.40;7.03;;;39.80;46.10;;;;;;5114453;28;20031;-77
2022/08/06 12:02:39;;;;;;;8.15;6.93;;;39.80;46.40;;;;;;5096617;28;20027;-78
2022/08/06 12:05:26;;;;;;;12.90;7.88;;;39.30;46.90;;;;;;5115162;28;20390;-81
2022/08/06 12:08:11;;;;;;;10.15;7.55;;;39.10;47.90;;;;;;5078995;28;20027;-81
2022/08/06 12:10:37;;;;;;;11.35;7.65;;;38.90;47.70;;;;;;5115245;28;20059;-81
2022/08/06 12:13:02;;;;;;;9.27;7.00;;;38.70;48.30;;;;;;5097209;28;20120;-81
2022/08/06 12:15:30;;;;;;;9.75;7.18;;;38.80;48.20;;;;;;5115040;28;20119;-88
2022/08/06 12:17:58;;;;;;;11.27;7.53;;;38.70;47.50;;;;;;5115361;28;20534;-86
2022/08/06 12:20:30;;;;;;;12.48;7.30;;;38.90;47.50;;;;;;5114947;28;20126;-78
2022/08/06 12:23:01;;;;;;;17.48;7.30;;;39.00;47.80;;;;;;5115131;28;20020;-80
2022/08/06 12:25:38;;;;;;;15.85;7.47;;;38.90;47.80;;;;;;5097008;28;20027;-80
2022/08/06 12:28:05;;;;;;;10.68;7.63;;;39.20;47.10;;;;;;5115119;28;20065;-83
2022/08/06 12:30:54;;;;;;;11.60;7.38;;;39.00;47.00;;;;;;5114855;28;20035;-78
2022/08/06 12:33:21;;;;;;;8.13;7.05;;;39.00;47.30;;;;;;5114829;28;20024;-83
2022/08/06 12:35:56;;;;;;;7.65;6.85;;;38.90;47.20;;;;;;5096465;28;20478;-80
2022/08/06 12:38:25;;;;;;;9.18;7.85;;;38.80;47.50;;;;;;5114596;28;20035;-81
2022/08/06 12:41:03;;;;;;;8.80;7.18;;;38.90;47.50;;;;;;5114637;28;20408;-80
2022/08/06 12:43:33;;;;;;;9.50;7.53;;;39.10;46.80;;;;;;5095969;28;20035;-91
2022/08/06 12:45:59;;;;;;;;;;;39.00;47.20;;;;;;5115231;28;20024;-84
2022/08/06 12:48:25;;;;;;;12.30;7.38;;;39.30;46.90;;;;;;5096073;28;19922;-75
2022/08/06 12:51:09;;;;;;;13.65;7.80;;;39.20;47.10;;;;;;5114624;28;20035;-78
2022/08/06 12:53:39;;;;;;;8.93;7.32;;;39.50;47.60;;;;;;5096398;28;20019;-83
2022/08/06 12:56:05;;;;;;;9.60;7.05;;;39.90;46.40;;;;;;5114864;28;20023;-86
2022/08/06 12:58:38;;;;;;;9.95;7.28;;;39.90;46.10;;;;;;5113892;28;20039;-88
2022/08/06 13:01:06;;;;;;;10.30;7.28;;;39.20;47.00;;;;;;5095292;28;20028;-78
2022/08/06 13:03:34;;;;;;;8.98;7.03;;;39.20;47.10;;;;;;5114599;28;20042;-78
2022/08/06 13:06:02;;;;;;;8.27;7.47;;;39.10;47.40;;;;;;5095828;28;20027;-84
2022/08/06 13:08:28;;;;;;;10.38;7.05;;;39.30;47.00;;;;;;5114137;28;20051;-85
2022/08/06 13:10:56;;;;;;;11.93;7.22;;;39.40;47.70;;;;;;5113588;28;20031;-78